sensor_id;sensor_type;location;lat;lon;timestamp;temperature;humidity
13328;DHT22;6733;51.044;3.746;2023-04-03T00:01:41;5.50;99.90
13328;DHT22;6733;51.044;3.746;2023-04-03T00:04:07;5.50;99.90
13328;DHT22;6733;51.044;3.746;2023-04-03T00:06:33;5.50;99.90
13328;DHT22;6733;51.044;3.746;2023-04-03T00:09:01;5.50;99.90
13328;DHT22;6733;51.044;3.746;2023-04-03T00:11:27;5.50;99.90
13328;DHT22;6733;51.044;3.746;2023-04-03T00:13:53;5.50;99.90
13328;DHT22;6733;51.044;3.746;2023-04-03T00:16:20;5.40;99.90
13328;DHT22;6733;51.044;3.746;2023-04-03T00:18:46;5.40;99.90
13328;DHT22;6733;51.044;3.746;2023-04-03T00:21:13;5.40;99.90
13328;DHT22;6733;51.044;3.746;2023-04-03T00:23:40;5.40;99.90
13328;DHT22;6733;51.044;3.746;2023-04-03T00:26:06;5.40;99.90
13328;DHT22;6733;51.044;3.746;2023-04-03T00:28:32;5.40;99.90
13328;DHT22;6733;51.044;3.746;2023-04-03T00:30:59;5.40;99.90
13328;DHT22;6733;51.044;3.746;2023-04-03T00:33:25;5.40;99.90
13328;DHT22;6733;51.044;3.746;2023-04-03T00:35:51;5.40;99.90
13328;DHT22;6733;51.044;3.746;2023-04-03T00:38:18;5.40;99.90
13328;DHT22;6733;51.044;3.746;2023-04-03T00:40:46;5.40;99.90
13328;DHT22;6733;51.044;3.746;2023-04-03T00:43:17;5.40;99.90
13328;DHT22;6733;51.044;3.746;2023-04-03T00:45:48;5.40;99.90
13328;DHT22;6733;51.044;3.746;2023-04-03T00:48:44;5.40;99.90
13328;DHT22;6733;51.044;3.746;2023-04-03T00:51:14;5.30;99.90
13328;DHT22;6733;51.044;3.746;2023-04-03T00:53:52;5.30;99.90
13328;DHT22;6733;51.044;3.746;2023-04-03T00:56:21;5.30;99.90
13328;DHT22;6733;51.044;3.746;2023-04-03T00:58:54;5.30;99.90
13328;DHT22;6733;51.044;3.746;2023-04-03T01:01:25;5.30;99.90
13328;DHT22;6733;51.044;3.746;2023-04-03T01:03:51;5.30;99.90
13328;DHT22;6733;51.044;3.746;2023-04-03T01:06:29;5.30;99.90
13328;DHT22;6733;51.044;3.746;2023-04-03T01:08:59;5.30;99.90
13328;DHT22;6733;51.044;3.746;2023-04-03T01:11:26;5.20;99.90
13328;DHT22;6733;51.044;3.746;2023-04-03T01:13:53;5.20;99.90
13328;DHT22;6733;51.044;3.746;2023-04-03T01:16:19;5.20;99.90
13328;DHT22;6733;51.044;3.746;2023-04-03T01:18:45;5.20;99.90
13328;DHT22;6733;51.044;3.746;2023-04-03T01:26:49;5.10;99.90
13328;DHT22;6733;51.044;3.746;2023-04-03T01:29:16;5.10;99.90
13328;DHT22;6733;51.044;3.746;2023-04-03T01:31:57;5.10;99.90
13328;DHT22;6733;51.044;3.746;2023-04-03T01:34:24;5.10;99.90
13328;DHT22;6733;51.044;3.746;2023-04-03T01:36:51;5.10;99.90
13328;DHT22;6733;51.044;3.746;2023-04-03T01:39:18;5.10;99.90
13328;DHT22;6733;51.044;3.746;2023-04-03T01:41:44;5.00;99.90
13328;DHT22;6733;51.044;3.746;2023-04-03T01:44:11;5.10;99.90
13328;DHT22;6733;51.044;3.746;2023-04-03T01:46:37;5.00;99.90
13328;DHT22;6733;51.044;3.746;2023-04-03T01:49:04;5.10;99.90
13328;DHT22;6733;51.044;3.746;2023-04-03T01:51:31;5.00;99.90
13328;DHT22;6733;51.044;3.746;2023-04-03T01:53:57;5.00;99.90
13328;DHT22;6733;51.044;3.746;2023-04-03T01:56:23;5.00;99.90
13328;DHT22;6733;51.044;3.746;2023-04-03T01:58:49;5.00;99.90
13328;DHT22;6733;51.044;3.746;2023-04-03T02:01:15;5.00;99.90
13328;DHT22;6733;51.044;3.746;2023-04-03T02:03:42;5.00;99.90
13328;DHT22;6733;51.044;3.746;2023-04-03T02:06:08;5.00;99.90
13328;DHT22;6733;51.044;3.746;2023-04-03T02:08:34;5.00;99.90
13328;DHT22;6733;51.044;3.746;2023-04-03T02:11:00;4.90;99.90
13328;DHT22;6733;51.044;3.746;2023-04-03T02:13:26;4.90;99.90
13328;DHT22;6733;51.044;3.746;2023-04-03T02:15:53;4.90;99.90
13328;DHT22;6733;51.044;3.746;2023-04-03T02:18:19;4.90;99.90
13328;DHT22;6733;51.044;3.746;2023-04-03T02:20:46;4.90;99.90
13328;DHT22;6733;51.044;3.746;2023-04-03T02:23:12;4.90;99.90
13328;DHT22;6733;51.044;3.746;2023-04-03T02:25:38;4.90;99.90
13328;DHT22;6733;51.044;3.746;2023-04-03T02:28:05;4.90;99.90
13328;DHT22;6733;51.044;3.746;2023-04-03T02:30:32;4.90;99.90
13328;DHT22;6733;51.044;3.746;2023-04-03T02:33:23;4.90;99.90
13328;DHT22;6733;51.044;3.746;2023-04-03T02:36:14;4.90;99.90
13328;DHT22;6733;51.044;3.746;2023-04-03T02:39:05;4.90;99.90
13328;DHT22;6733;51.044;3.746;2023-04-03T02:41:56;4.90;99.90
13328;DHT22;6733;51.044;3.746;2023-04-03T02:44:22;4.80;99.90
13328;DHT22;6733;51.044;3.746;2023-04-03T02:46:49;4.80;99.90
13328;DHT22;6733;51.044;3.746;2023-04-03T02:49:15;4.80;99.90
13328;DHT22;6733;51.044;3.746;2023-04-03T02:51:42;4.80;99.90
13328;DHT22;6733;51.044;3.746;2023-04-03T02:54:08;4.80;99.90
13328;DHT22;6733;51.044;3.746;2023-04-03T02:56:34;4.80;99.90
13328;DHT22;6733;51.044;3.746;2023-04-03T02:59:01;4.80;99.90
13328;DHT22;6733;51.044;3.746;2023-04-03T03:01:27;4.70;99.90
13328;DHT22;6733;51.044;3.746;2023-04-03T03:03:58;4.70;99.90
13328;DHT22;6733;51.044;3.746;2023-04-03T03:06:24;4.70;99.90
13328;DHT22;6733;51.044;3.746;2023-04-03T03:08:50;4.70;99.90
13328;DHT22;6733;51.044;3.746;2023-04-03T03:11:16;4.60;99.90
13328;DHT22;6733;51.044;3.746;2023-04-03T03:13:43;4.70;99.90
13328;DHT22;6733;51.044;3.746;2023-04-03T03:16:09;4.60;99.90
13328;DHT22;6733;51.044;3.746;2023-04-03T03:18:35;4.60;99.90
13328;DHT22;6733;51.044;3.746;2023-04-03T03:21:02;4.60;99.90
13328;DHT22;6733;51.044;3.746;2023-04-03T03:23:29;4.60;99.90
13328;DHT22;6733;51.044;3.746;2023-04-03T03:25:59;4.60;99.90
13328;DHT22;6733;51.044;3.746;2023-04-03T03:28:26;4.60;99.90
13328;DHT22;6733;51.044;3.746;2023-04-03T03:30:52;4.60;99.90
13328;DHT22;6733;51.044;3.746;2023-04-03T03:33:19;4.60;99.90
13328;DHT22;6733;51.044;3.746;2023-04-03T03:35:45;4.60;99.90
13328;DHT22;6733;51.044;3.746;2023-04-03T03:38:11;4.60;99.90
13328;DHT22;6733;51.044;3.746;2023-04-03T03:40:38;4.50;99.90
13328;DHT22;6733;51.044;3.746;2023-04-03T03:43:04;4.50;99.90
13328;DHT22;6733;51.044;3.746;2023-04-03T03:45:30;4.50;99.90
13328;DHT22;6733;51.044;3.746;2023-04-03T03:47:57;4.50;99.90
13328;DHT22;6733;51.044;3.746;2023-04-03T03:50:23;4.50;99.90
13328;DHT22;6733;51.044;3.746;2023-04-03T03:52:49;4.50;99.90
13328;DHT22;6733;51.044;3.746;2023-04-03T03:55:15;4.50;99.90
13328;DHT22;6733;51.044;3.746;2023-04-03T03:57:41;4.50;99.90
13328;DHT22;6733;51.044;3.746;2023-04-03T04:00:08;4.50;99.90
13328;DHT22;6733;51.044;3.746;2023-04-03T04:02:34;4.50;99.90
13328;DHT22;6733;51.044;3.746;2023-04-03T04:05:00;4.50;99.90
13328;DHT22;6733;51.044;3.746;2023-04-03T04:07:26;4.50;99.90
13328;DHT22;6733;51.044;3.746;2023-04-03T04:09:55;4.40;99.90
13328;DHT22;6733;51.044;3.746;2023-04-03T04:12:21;4.50;99.90
13328;DHT22;6733;51.044;3.746;2023-04-03T04:14:47;4.40;99.90
13328;DHT22;6733;51.044;3.746;2023-04-03T04:17:14;4.40;99.90
13328;DHT22;6733;51.044;3.746;2023-04-03T04:19:40;4.40;99.90
13328;DHT22;6733;51.044;3.746;2023-04-03T04:22:06;4.40;99.90
13328;DHT22;6733;51.044;3.746;2023-04-03T04:24:32;4.40;99.90
13328;DHT22;6733;51.044;3.746;2023-04-03T04:26:59;4.40;99.90
13328;DHT22;6733;51.044;3.746;2023-04-03T04:29:25;4.30;99.90
13328;DHT22;6733;51.044;3.746;2023-04-03T04:31:51;4.40;99.90
13328;DHT22;6733;51.044;3.746;2023-04-03T04:34:17;4.40;99.90
13328;DHT22;6733;51.044;3.746;2023-04-03T04:36:43;4.40;99.90
13328;DHT22;6733;51.044;3.746;2023-04-03T04:39:09;4.40;99.90
13328;DHT22;6733;51.044;3.746;2023-04-03T04:41:35;4.30;99.90
13328;DHT22;6733;51.044;3.746;2023-04-03T04:44:02;4.30;99.90
13328;DHT22;6733;51.044;3.746;2023-04-03T04:46:28;4.30;99.90
13328;DHT22;6733;51.044;3.746;2023-04-03T04:48:54;4.30;99.90
13328;DHT22;6733;51.044;3.746;2023-04-03T04:51:21;4.30;99.90
13328;DHT22;6733;51.044;3.746;2023-04-03T04:53:47;4.30;99.90
13328;DHT22;6733;51.044;3.746;2023-04-03T04:56:13;4.20;99.90
13328;DHT22;6733;51.044;3.746;2023-04-03T04:58:39;4.20;99.90
13328;DHT22;6733;51.044;3.746;2023-04-03T05:01:07;4.20;99.90
13328;DHT22;6733;51.044;3.746;2023-04-03T05:03:33;4.20;99.90
13328;DHT22;6733;51.044;3.746;2023-04-03T05:06:00;4.20;99.90
13328;DHT22;6733;51.044;3.746;2023-04-03T05:08:26;4.20;99.90
13328;DHT22;6733;51.044;3.746;2023-04-03T05:10:52;4.20;99.90
13328;DHT22;6733;51.044;3.746;2023-04-03T05:13:19;4.20;99.90
13328;DHT22;6733;51.044;3.746;2023-04-03T05:15:46;4.20;99.90
13328;DHT22;6733;51.044;3.746;2023-04-03T05:18:13;4.20;99.90
13328;DHT22;6733;51.044;3.746;2023-04-03T05:20:39;4.20;99.90
13328;DHT22;6733;51.044;3.746;2023-04-03T05:23:06;4.20;99.90
13328;DHT22;6733;51.044;3.746;2023-04-03T05:25:32;4.20;99.90
13328;DHT22;6733;51.044;3.746;2023-04-03T05:27:58;4.20;99.90
13328;DHT22;6733;51.044;3.746;2023-04-03T05:30:24;4.20;99.90
13328;DHT22;6733;51.044;3.746;2023-04-03T05:32:50;4.20;99.90
13328;DHT22;6733;51.044;3.746;2023-04-03T05:35:17;4.20;99.90
13328;DHT22;6733;51.044;3.746;2023-04-03T05:37:43;4.20;99.90
13328;DHT22;6733;51.044;3.746;2023-04-03T05:40:09;4.20;99.90
13328;DHT22;6733;51.044;3.746;2023-04-03T05:42:35;4.30;99.90
13328;DHT22;6733;51.044;3.746;2023-04-03T05:45:02;4.30;99.90
13328;DHT22;6733;51.044;3.746;2023-04-03T05:47:28;4.30;99.90
13328;DHT22;6733;51.044;3.746;2023-04-03T05:49:54;4.30;99.90
13328;DHT22;6733;51.044;3.746;2023-04-03T05:52:22;4.30;99.90
13328;DHT22;6733;51.044;3.746;2023-04-03T05:54:49;4.40;99.90
13328;DHT22;6733;51.044;3.746;2023-04-03T05:57:15;4.40;99.90
13328;DHT22;6733;51.044;3.746;2023-04-03T05:59:42;4.40;99.90
13328;DHT22;6733;51.044;3.746;2023-04-03T06:02:20;4.40;99.90
13328;DHT22;6733;51.044;3.746;2023-04-03T06:04:47;4.50;99.90
13328;DHT22;6733;51.044;3.746;2023-04-03T06:07:16;4.50;99.90
13328;DHT22;6733;51.044;3.746;2023-04-03T06:09:43;4.60;99.90
13328;DHT22;6733;51.044;3.746;2023-04-03T06:12:09;4.60;99.90
13328;DHT22;6733;51.044;3.746;2023-04-03T06:14:36;4.60;99.90
13328;DHT22;6733;51.044;3.746;2023-04-03T06:17:02;4.70;99.90
13328;DHT22;6733;51.044;3.746;2023-04-03T06:19:29;4.80;99.90
13328;DHT22;6733;51.044;3.746;2023-04-03T06:21:55;4.80;99.90
13328;DHT22;6733;51.044;3.746;2023-04-03T06:24:21;4.90;99.90
13328;DHT22;6733;51.044;3.746;2023-04-03T06:26:50;4.90;99.90
13328;DHT22;6733;51.044;3.746;2023-04-03T06:29:18;5.00;99.90
13328;DHT22;6733;51.044;3.746;2023-04-03T06:31:45;5.00;99.90
13328;DHT22;6733;51.044;3.746;2023-04-03T06:34:13;5.10;99.90
13328;DHT22;6733;51.044;3.746;2023-04-03T06:36:39;5.20;99.90
13328;DHT22;6733;51.044;3.746;2023-04-03T06:39:06;5.20;99.90
13328;DHT22;6733;51.044;3.746;2023-04-03T06:41:33;5.30;99.90
13328;DHT22;6733;51.044;3.746;2023-04-03T06:43:59;5.30;99.90
13328;DHT22;6733;51.044;3.746;2023-04-03T06:46:26;5.40;99.90
13328;DHT22;6733;51.044;3.746;2023-04-03T06:48:52;5.50;99.90
13328;DHT22;6733;51.044;3.746;2023-04-03T06:51:22;5.50;99.90
13328;DHT22;6733;51.044;3.746;2023-04-03T06:53:49;5.60;99.90
13328;DHT22;6733;51.044;3.746;2023-04-03T06:56:16;5.70;99.90
13328;DHT22;6733;51.044;3.746;2023-04-03T06:58:43;5.80;99.90
13328;DHT22;6733;51.044;3.746;2023-04-03T07:01:10;5.80;99.90
13328;DHT22;6733;51.044;3.746;2023-04-03T07:03:38;5.70;99.90
13328;DHT22;6733;51.044;3.746;2023-04-03T07:06:05;5.40;99.90
13328;DHT22;6733;51.044;3.746;2023-04-03T07:08:33;5.30;99.90
13328;DHT22;6733;51.044;3.746;2023-04-03T07:11:00;5.10;99.90
13328;DHT22;6733;51.044;3.746;2023-04-03T07:13:26;5.10;99.90
13328;DHT22;6733;51.044;3.746;2023-04-03T07:15:52;5.00;99.90
13328;DHT22;6733;51.044;3.746;2023-04-03T07:18:18;5.00;99.90
13328;DHT22;6733;51.044;3.746;2023-04-03T07:20:45;5.20;99.90
13328;DHT22;6733;51.044;3.746;2023-04-03T07:23:11;5.20;99.90
13328;DHT22;6733;51.044;3.746;2023-04-03T07:25:46;5.20;99.90
13328;DHT22;6733;51.044;3.746;2023-04-03T07:28:13;5.30;99.90
13328;DHT22;6733;51.044;3.746;2023-04-03T07:30:48;5.30;99.90
13328;DHT22;6733;51.044;3.746;2023-04-03T07:33:17;5.40;99.90
13328;DHT22;6733;51.044;3.746;2023-04-03T07:35:44;5.60;99.90
13328;DHT22;6733;51.044;3.746;2023-04-03T07:38:11;5.70;99.90
13328;DHT22;6733;51.044;3.746;2023-04-03T07:40:38;5.80;99.90
13328;DHT22;6733;51.044;3.746;2023-04-03T07:43:05;5.90;99.90
13328;DHT22;6733;51.044;3.746;2023-04-03T07:45:34;5.90;99.90
13328;DHT22;6733;51.044;3.746;2023-04-03T07:48:00;6.00;99.90
13328;DHT22;6733;51.044;3.746;2023-04-03T07:50:27;6.00;99.90
13328;DHT22;6733;51.044;3.746;2023-04-03T07:52:54;6.00;99.90
13328;DHT22;6733;51.044;3.746;2023-04-03T07:55:22;6.20;99.90
13328;DHT22;6733;51.044;3.746;2023-04-03T07:57:48;6.10;99.90
13328;DHT22;6733;51.044;3.746;2023-04-03T08:00:15;6.30;99.90
13328;DHT22;6733;51.044;3.746;2023-04-03T08:02:44;6.40;99.90
13328;DHT22;6733;51.044;3.746;2023-04-03T08:05:10;6.40;99.90
13328;DHT22;6733;51.044;3.746;2023-04-03T08:07:38;6.50;99.90
13328;DHT22;6733;51.044;3.746;2023-04-03T08:10:04;6.80;99.90
13328;DHT22;6733;51.044;3.746;2023-04-03T08:12:31;7.00;99.90
13328;DHT22;6733;51.044;3.746;2023-04-03T08:14:59;7.00;99.90
13328;DHT22;6733;51.044;3.746;2023-04-03T08:17:26;7.00;99.90
13328;DHT22;6733;51.044;3.746;2023-04-03T08:19:52;7.20;99.90
13328;DHT22;6733;51.044;3.746;2023-04-03T08:22:19;7.40;99.90
13328;DHT22;6733;51.044;3.746;2023-04-03T08:24:47;7.40;99.90
13328;DHT22;6733;51.044;3.746;2023-04-03T08:27:13;7.30;99.90
13328;DHT22;6733;51.044;3.746;2023-04-03T08:29:39;7.30;99.90
13328;DHT22;6733;51.044;3.746;2023-04-03T08:32:05;7.30;99.90
13328;DHT22;6733;51.044;3.746;2023-04-03T08:34:32;7.40;99.90
13328;DHT22;6733;51.044;3.746;2023-04-03T08:37:01;7.40;99.90
13328;DHT22;6733;51.044;3.746;2023-04-03T08:39:27;7.60;99.90
13328;DHT22;6733;51.044;3.746;2023-04-03T08:41:56;7.90;99.90
13328;DHT22;6733;51.044;3.746;2023-04-03T08:52:17;8.20;99.90
13328;DHT22;6733;51.044;3.746;2023-04-03T08:54:58;8.60;99.90
13328;DHT22;6733;51.044;3.746;2023-04-03T08:57:39;8.70;99.90
13328;DHT22;6733;51.044;3.746;2023-04-03T09:00:16;8.50;99.90
13328;DHT22;6733;51.044;3.746;2023-04-03T09:02:46;8.50;99.90
13328;DHT22;6733;51.044;3.746;2023-04-03T09:05:16;8.40;99.90
13328;DHT22;6733;51.044;3.746;2023-04-03T09:08:16;8.80;99.90
13328;DHT22;6733;51.044;3.746;2023-04-03T09:10:44;8.90;99.90
13328;DHT22;6733;51.044;3.746;2023-04-03T09:13:20;9.00;99.90
13328;DHT22;6733;51.044;3.746;2023-04-03T09:15:48;9.60;99.90
13328;DHT22;6733;51.044;3.746;2023-04-03T09:18:19;9.80;99.90
13328;DHT22;6733;51.044;3.746;2023-04-03T09:20:54;9.50;99.90
13328;DHT22;6733;51.044;3.746;2023-04-03T09:23:28;9.40;99.90
13328;DHT22;6733;51.044;3.746;2023-04-03T09:26:01;9.60;99.90
13328;DHT22;6733;51.044;3.746;2023-04-03T09:28:30;9.60;99.90
13328;DHT22;6733;51.044;3.746;2023-04-03T09:30:59;9.70;99.90
13328;DHT22;6733;51.044;3.746;2023-04-03T09:33:26;9.60;99.90
13328;DHT22;6733;51.044;3.746;2023-04-03T09:35:54;9.80;99.90
13328;DHT22;6733;51.044;3.746;2023-04-03T09:38:22;10.10;99.90
13328;DHT22;6733;51.044;3.746;2023-04-03T09:41:02;10.10;99.90
13328;DHT22;6733;51.044;3.746;2023-04-03T09:43:31;10.00;99.90
13328;DHT22;6733;51.044;3.746;2023-04-03T09:46:29;9.90;99.90
13328;DHT22;6733;51.044;3.746;2023-04-03T09:49:03;10.50;99.90
13328;DHT22;6733;51.044;3.746;2023-04-03T09:51:30;10.00;99.90
13328;DHT22;6733;51.044;3.746;2023-04-03T09:53:57;10.30;99.90
13328;DHT22;6733;51.044;3.746;2023-04-03T10:01:37;9.50;99.90
13328;DHT22;6733;51.044;3.746;2023-04-03T10:04:16;9.90;99.90
13328;DHT22;6733;51.044;3.746;2023-04-03T10:06:54;10.20;99.90
13328;DHT22;6733;51.044;3.746;2023-04-03T10:09:29;9.60;99.90
13328;DHT22;6733;51.044;3.746;2023-04-03T10:12:10;9.80;99.90
13328;DHT22;6733;51.044;3.746;2023-04-03T10:14:41;10.10;99.90
13328;DHT22;6733;51.044;3.746;2023-04-03T10:17:36;10.30;99.90
13328;DHT22;6733;51.044;3.746;2023-04-03T10:20:08;10.60;99.90
13328;DHT22;6733;51.044;3.746;2023-04-03T10:25:55;10.40;99.90
13328;DHT22;6733;51.044;3.746;2023-04-03T10:28:25;10.10;99.90
13328;DHT22;6733;51.044;3.746;2023-04-03T10:36:39;11.00;99.90
13328;DHT22;6733;51.044;3.746;2023-04-03T10:55:43;11.80;99.90
13328;DHT22;6733;51.044;3.746;2023-04-03T10:58:26;11.40;99.90
13328;DHT22;6733;51.044;3.746;2023-04-03T11:00:55;11.20;99.90
13328;DHT22;6733;51.044;3.746;2023-04-03T11:03:35;11.10;99.90
13328;DHT22;6733;51.044;3.746;2023-04-03T11:06:05;11.70;99.90
13328;DHT22;6733;51.044;3.746;2023-04-03T11:11:24;11.50;99.90
13328;DHT22;6733;51.044;3.746;2023-04-03T11:14:40;11.10;99.90
13328;DHT22;6733;51.044;3.746;2023-04-03T11:16:45;10.70;99.30
13328;DHT22;6733;51.044;3.746;2023-04-03T11:19:39;11.10;99.50
13328;DHT22;6733;51.044;3.746;2023-04-03T11:22:34;11.50;99.90
13328;DHT22;6733;51.044;3.746;2023-04-03T11:36:31;11.50;97.30
13328;DHT22;6733;51.044;3.746;2023-04-03T11:39:03;11.30;96.60
13328;DHT22;6733;51.044;3.746;2023-04-03T11:41:32;11.10;96.70
13328;DHT22;6733;51.044;3.746;2023-04-03T11:44:05;11.30;95.60
13328;DHT22;6733;51.044;3.746;2023-04-03T11:46:54;11.40;95.00
13328;DHT22;6733;51.044;3.746;2023-04-03T11:49:52;11.40;96.10
13328;DHT22;6733;51.044;3.746;2023-04-03T11:58:19;12.00;95.00
13328;DHT22;6733;51.044;3.746;2023-04-03T12:01:06;11.90;93.60
13328;DHT22;6733;51.044;3.746;2023-04-03T12:03:56;11.40;92.20
13328;DHT22;6733;51.044;3.746;2023-04-03T12:09:02;11.90;93.20
13328;DHT22;6733;51.044;3.746;2023-04-03T12:11:30;12.40;92.90
13328;DHT22;6733;51.044;3.746;2023-04-03T12:16:45;11.80;92.00
13328;DHT22;6733;51.044;3.746;2023-04-03T12:32:26;11.90;91.10
13328;DHT22;6733;51.044;3.746;2023-04-03T12:48:29;12.40;89.80
13328;DHT22;6733;51.044;3.746;2023-04-03T12:50:57;12.20;90.70
13328;DHT22;6733;51.044;3.746;2023-04-03T12:53:31;12.50;91.50
13328;DHT22;6733;51.044;3.746;2023-04-03T12:58:52;12.60;91.20
13328;DHT22;6733;51.044;3.746;2023-04-03T13:01:22;12.90;91.20
13328;DHT22;6733;51.044;3.746;2023-04-03T13:03:53;12.80;90.30
13328;DHT22;6733;51.044;3.746;2023-04-03T13:06:23;12.90;90.20
13328;DHT22;6733;51.044;3.746;2023-04-03T13:08:54;12.50;88.50
13328;DHT22;6733;51.044;3.746;2023-04-03T13:11:24;12.10;88.30
13328;DHT22;6733;51.044;3.746;2023-04-03T13:13:56;12.00;88.80
13328;DHT22;6733;51.044;3.746;2023-04-03T13:16:22;12.00;87.50
13328;DHT22;6733;51.044;3.746;2023-04-03T13:18:54;12.40;88.20
13328;DHT22;6733;51.044;3.746;2023-04-03T13:21:31;12.60;87.20
13328;DHT22;6733;51.044;3.746;2023-04-03T13:24:00;12.10;88.20
13328;DHT22;6733;51.044;3.746;2023-04-03T13:26:30;12.10;87.70
13328;DHT22;6733;51.044;3.746;2023-04-03T13:29:02;12.20;87.20
13328;DHT22;6733;51.044;3.746;2023-04-03T13:31:34;12.00;87.40
13328;DHT22;6733;51.044;3.746;2023-04-03T13:34:10;12.20;87.30
13328;DHT22;6733;51.044;3.746;2023-04-03T13:37:00;12.70;87.20
13328;DHT22;6733;51.044;3.746;2023-04-03T13:41:58;12.20;85.90
13328;DHT22;6733;51.044;3.746;2023-04-03T13:44:34;12.60;84.30
13328;DHT22;6733;51.044;3.746;2023-04-03T13:47:21;12.60;85.50
13328;DHT22;6733;51.044;3.746;2023-04-03T13:50:13;12.50;81.60
13328;DHT22;6733;51.044;3.746;2023-04-03T13:53:17;12.60;79.40
13328;DHT22;6733;51.044;3.746;2023-04-03T13:55:51;12.10;77.40
13328;DHT22;6733;51.044;3.746;2023-04-03T13:58:28;12.30;78.50
13328;DHT22;6733;51.044;3.746;2023-04-03T14:04:00;12.60;75.90
13328;DHT22;6733;51.044;3.746;2023-04-03T14:06:35;12.80;78.50
13328;DHT22;6733;51.044;3.746;2023-04-03T14:09:01;13.00;76.90
13328;DHT22;6733;51.044;3.746;2023-04-03T14:11:30;13.40;75.70
13328;DHT22;6733;51.044;3.746;2023-04-03T14:14:00;13.00;75.40
13328;DHT22;6733;51.044;3.746;2023-04-03T14:16:30;12.70;76.90
13328;DHT22;6733;51.044;3.746;2023-04-03T14:18:57;13.00;77.70
13328;DHT22;6733;51.044;3.746;2023-04-03T14:21:24;13.60;76.90
13328;DHT22;6733;51.044;3.746;2023-04-03T14:23:50;13.50;75.60
13328;DHT22;6733;51.044;3.746;2023-04-03T14:26:19;13.30;76.90
13328;DHT22;6733;51.044;3.746;2023-04-03T14:28:48;14.00;76.60
13328;DHT22;6733;51.044;3.746;2023-04-03T14:31:16;13.60;74.10
13328;DHT22;6733;51.044;3.746;2023-04-03T14:33:44;13.40;73.50
13328;DHT22;6733;51.044;3.746;2023-04-03T14:36:25;13.50;73.50
13328;DHT22;6733;51.044;3.746;2023-04-03T14:38:52;13.30;71.30
13328;DHT22;6733;51.044;3.746;2023-04-03T14:41:20;13.40;73.10
13328;DHT22;6733;51.044;3.746;2023-04-03T14:43:47;13.80;73.10
13328;DHT22;6733;51.044;3.746;2023-04-03T14:46:37;14.00;72.50
13328;DHT22;6733;51.044;3.746;2023-04-03T14:49:13;13.50;70.80
13328;DHT22;6733;51.044;3.746;2023-04-03T14:51:40;13.90;71.80
13328;DHT22;6733;51.044;3.746;2023-04-03T14:54:15;13.60;70.90
13328;DHT22;6733;51.044;3.746;2023-04-03T14:56:42;13.80;72.50
13328;DHT22;6733;51.044;3.746;2023-04-03T14:59:12;14.10;70.30
13328;DHT22;6733;51.044;3.746;2023-04-03T15:01:39;13.60;71.40
13328;DHT22;6733;51.044;3.746;2023-04-03T15:04:35;13.60;71.40
13328;DHT22;6733;51.044;3.746;2023-04-03T15:07:01;13.70;72.20
13328;DHT22;6733;51.044;3.746;2023-04-03T15:09:28;13.70;72.50
13328;DHT22;6733;51.044;3.746;2023-04-03T15:11:55;13.80;73.00
13328;DHT22;6733;51.044;3.746;2023-04-03T15:14:22;13.70;72.00
13328;DHT22;6733;51.044;3.746;2023-04-03T15:16:49;13.60;72.60
13328;DHT22;6733;51.044;3.746;2023-04-03T15:19:17;13.30;72.20
13328;DHT22;6733;51.044;3.746;2023-04-03T15:21:43;13.00;71.50
13328;DHT22;6733;51.044;3.746;2023-04-03T15:24:10;13.30;71.90
13328;DHT22;6733;51.044;3.746;2023-04-03T15:26:37;13.50;72.80
13328;DHT22;6733;51.044;3.746;2023-04-03T15:29:04;14.00;71.90
13328;DHT22;6733;51.044;3.746;2023-04-03T15:31:30;14.70;70.90
13328;DHT22;6733;51.044;3.746;2023-04-03T15:33:57;14.10;69.40
13328;DHT22;6733;51.044;3.746;2023-04-03T15:36:23;14.10;68.70
13328;DHT22;6733;51.044;3.746;2023-04-03T15:38:49;14.30;68.90
13328;DHT22;6733;51.044;3.746;2023-04-03T15:41:15;15.10;68.40
13328;DHT22;6733;51.044;3.746;2023-04-03T15:43:42;16.00;67.60
13328;DHT22;6733;51.044;3.746;2023-04-03T15:46:08;16.20;67.20
13328;DHT22;6733;51.044;3.746;2023-04-03T15:48:35;15.90;65.20
13328;DHT22;6733;51.044;3.746;2023-04-03T15:51:02;16.00;65.30
13328;DHT22;6733;51.044;3.746;2023-04-03T15:53:28;15.10;66.00
13328;DHT22;6733;51.044;3.746;2023-04-03T15:55:54;16.10;66.00
13328;DHT22;6733;51.044;3.746;2023-04-03T15:58:20;15.80;64.70
13328;DHT22;6733;51.044;3.746;2023-04-03T16:00:46;15.40;66.00
13328;DHT22;6733;51.044;3.746;2023-04-03T16:03:17;15.00;66.30
13328;DHT22;6733;51.044;3.746;2023-04-03T16:05:44;15.30;66.20
13328;DHT22;6733;51.044;3.746;2023-04-03T16:08:10;15.70;64.30
13328;DHT22;6733;51.044;3.746;2023-04-03T16:10:38;16.40;64.40
13328;DHT22;6733;51.044;3.746;2023-04-03T16:13:05;16.50;63.90
13328;DHT22;6733;51.044;3.746;2023-04-03T16:15:32;17.10;62.00
13328;DHT22;6733;51.044;3.746;2023-04-03T16:18:01;16.50;61.70
13328;DHT22;6733;51.044;3.746;2023-04-03T16:20:28;16.30;62.60
13328;DHT22;6733;51.044;3.746;2023-04-03T16:22:57;16.10;60.40
13328;DHT22;6733;51.044;3.746;2023-04-03T16:25:23;15.60;61.00
13328;DHT22;6733;51.044;3.746;2023-04-03T16:27:51;13.70;62.00
13328;DHT22;6733;51.044;3.746;2023-04-03T16:30:17;12.30;65.40
13328;DHT22;6733;51.044;3.746;2023-04-03T16:32:44;12.00;66.90
13328;DHT22;6733;51.044;3.746;2023-04-03T16:35:11;12.00;67.90
13328;DHT22;6733;51.044;3.746;2023-04-03T16:37:38;11.60;67.20
13328;DHT22;6733;51.044;3.746;2023-04-03T16:40:06;11.60;68.90
13328;DHT22;6733;51.044;3.746;2023-04-03T16:42:33;11.50;70.50
13328;DHT22;6733;51.044;3.746;2023-04-03T16:44:59;11.40;70.20
13328;DHT22;6733;51.044;3.746;2023-04-03T16:47:28;11.30;70.90
13328;DHT22;6733;51.044;3.746;2023-04-03T16:49:54;11.20;70.60
13328;DHT22;6733;51.044;3.746;2023-04-03T16:52:21;11.20;71.00
13328;DHT22;6733;51.044;3.746;2023-04-03T16:54:47;11.10;70.20
13328;DHT22;6733;51.044;3.746;2023-04-03T16:57:13;11.00;70.50
13328;DHT22;6733;51.044;3.746;2023-04-03T16:59:39;10.90;70.40
13328;DHT22;6733;51.044;3.746;2023-04-03T17:02:06;10.90;71.00
13328;DHT22;6733;51.044;3.746;2023-04-03T17:04:35;10.90;72.30
13328;DHT22;6733;51.044;3.746;2023-04-03T17:07:01;10.90;72.90
13328;DHT22;6733;51.044;3.746;2023-04-03T17:09:32;10.80;71.50
13328;DHT22;6733;51.044;3.746;2023-04-03T17:12:01;10.80;71.40
13328;DHT22;6733;51.044;3.746;2023-04-03T17:14:28;10.70;71.50
13328;DHT22;6733;51.044;3.746;2023-04-03T17:16:54;10.70;71.60
13328;DHT22;6733;51.044;3.746;2023-04-03T17:19:21;10.60;72.00
13328;DHT22;6733;51.044;3.746;2023-04-03T17:21:49;10.50;72.70
13328;DHT22;6733;51.044;3.746;2023-04-03T17:24:15;10.40;73.00
13328;DHT22;6733;51.044;3.746;2023-04-03T17:26:41;10.40;73.80
13328;DHT22;6733;51.044;3.746;2023-04-03T17:29:08;10.40;74.30
13328;DHT22;6733;51.044;3.746;2023-04-03T17:31:35;10.40;75.00
13328;DHT22;6733;51.044;3.746;2023-04-03T17:34:01;10.30;75.00
13328;DHT22;6733;51.044;3.746;2023-04-03T17:36:29;10.20;76.80
13328;DHT22;6733;51.044;3.746;2023-04-03T17:38:56;10.20;77.10
13328;DHT22;6733;51.044;3.746;2023-04-03T17:41:22;10.20;78.40
13328;DHT22;6733;51.044;3.746;2023-04-03T17:43:49;10.10;79.00
13328;DHT22;6733;51.044;3.746;2023-04-03T17:46:16;10.10;79.40
13328;DHT22;6733;51.044;3.746;2023-04-03T17:48:43;10.00;80.40
13328;DHT22;6733;51.044;3.746;2023-04-03T17:51:14;9.90;80.10
13328;DHT22;6733;51.044;3.746;2023-04-03T17:53:41;9.90;81.20